Search for airport 
image banner adimage banner adimage banner ad
image banner ad

KFOD - Fort Dodge Rgnl

Located in Fort Dodge, United States

ICAO - FOD, IATA - FOD

Data provided by Airmate  

General information

Coordinates: N42°33'4" W94°11'31"
Elevation is 1156 feet MSL.
Magnetic variation is 02° East
View others Airports in Iowa

Operational data

Special qualification required
Current time UTC:
Current local time:
Weather
METAR: KFOD 181756Z AUTO VRB04KT 10SM CLR 29/13 A2989 RMK AO2 SLP135 T02940128 10294 20200 50010
TAF: KFOD 181724Z 1818/1918 14004KT P6SM VCSH SCT120 FM182000 15004KT P6SM SCT250 FM190900 35007KT P6SM SKC
View NOTAMs / SUP AIP / TFR affecting this airport [VIEW]
Communications frequencies: [VIEW]

Runways:

RWY identifierQFULength (ft)Width (ft)SurfaceLDA (ft)
0665°6547150ASPH6547
24245°6547150ASPH6547
12127°5301100ASPH5301
30307°5301100ASPH5301

Airport contact information

Address: Fort Dodge United States

Other aviation service providers

Flight schools

Fort Dodge Flight Support, Inc.

Fort Dodge Flight Support, Inc.

Satellite view of KFOD